createdAt,value
2016-07-17T00:00:13.688Z,19.90
2016-07-17T00:01:12.263Z,19.90
2016-07-17T00:02:08.672Z,19.90
2016-07-17T00:03:09.616Z,19.90
2016-07-17T00:04:11.674Z,19.90
2016-07-17T00:05:12.415Z,19.90
2016-07-17T00:06:10.090Z,19.90
2016-07-17T00:07:12.369Z,19.90
2016-07-17T00:08:13.436Z,19.90
2016-07-17T00:09:12.909Z,19.90
2016-07-17T00:10:11.652Z,19.90
2016-07-17T00:11:10.257Z,19.90
2016-07-17T00:12:15.138Z,19.90
2016-07-17T00:13:09.969Z,19.90
2016-07-17T00:14:11.712Z,19.90
2016-07-17T00:15:09.144Z,19.90
2016-07-17T00:16:13.402Z,19.90
2016-07-17T00:17:12.300Z,19.90
2016-07-17T00:18:13.451Z,19.90
2016-07-17T00:19:13.423Z,19.90
2016-07-17T00:20:09.435Z,19.90
2016-07-17T00:21:09.262Z,19.90
2016-07-17T00:22:11.475Z,19.90
2016-07-17T00:23:10.338Z,19.90
2016-07-17T00:24:14.459Z,19.90
2016-07-17T00:25:12.545Z,19.90
2016-07-17T00:26:15.133Z,19.90
2016-07-17T00:27:12.777Z,19.90
2016-07-17T00:28:13.574Z,19.90
2016-07-17T00:29:09.902Z,19.90
2016-07-17T00:30:14.834Z,19.90
2016-07-17T00:31:13.796Z,19.90
2016-07-17T00:32:09.458Z,19.90
2016-07-17T00:33:09.317Z,19.90
2016-07-17T00:34:11.443Z,19.90
2016-07-17T00:35:13.865Z,19.90
2016-07-17T00:36:12.020Z,19.90
2016-07-17T00:37:13.492Z,19.90
2016-07-17T00:38:12.200Z,19.90
2016-07-17T00:39:12.027Z,19.90
2016-07-17T00:40:12.414Z,19.90
2016-07-17T00:41:11.697Z,19.90
2016-07-17T00:42:12.385Z,19.90
2016-07-17T00:43:12.762Z,19.90
2016-07-17T00:44:12.304Z,19.90
2016-07-17T00:45:09.757Z,19.90
2016-07-17T00:46:13.611Z,19.90
2016-07-17T00:47:12.454Z,19.90
2016-07-17T00:48:11.559Z,19.90
2016-07-17T00:49:12.806Z,19.90
2016-07-17T00:50:11.760Z,19.90
2016-07-17T00:51:12.734Z,19.90
2016-07-17T00:52:09.542Z,19.90
2016-07-17T00:53:12.171Z,19.90
2016-07-17T00:54:12.831Z,19.90
2016-07-17T00:55:11.645Z,19.90
2016-07-17T00:56:12.572Z,19.90
2016-07-17T00:57:09.753Z,19.90
2016-07-17T00:58:12.577Z,19.90
2016-07-17T00:59:11.425Z,19.90
2016-07-17T01:00:12.229Z,19.90
2016-07-17T01:01:09.421Z,19.90
2016-07-17T01:02:14.385Z,19.90
2016-07-17T01:03:12.820Z,19.90
2016-07-17T01:04:13.218Z,19.90
2016-07-17T01:05:13.479Z,19.90
2016-07-17T01:06:13.254Z,19.90
2016-07-17T01:07:12.109Z,19.90
2016-07-17T01:08:11.749Z,19.90
2016-07-17T01:09:12.023Z,19.90
2016-07-17T01:10:10.359Z,19.90
2016-07-17T01:11:12.497Z,19.90
2016-07-17T01:12:11.968Z,19.90
2016-07-17T01:13:12.440Z,19.90
2016-07-17T01:14:15.524Z,19.90
2016-07-17T01:15:13.938Z,19.90
2016-07-17T01:16:13.127Z,19.90
2016-07-17T01:17:12.101Z,19.90
2016-07-17T01:18:09.446Z,19.90
2016-07-17T01:19:14.897Z,19.90
2016-07-17T01:20:12.607Z,19.90
2016-07-17T01:21:11.965Z,19.90
2016-07-17T01:22:11.361Z,19.90
2016-07-17T01:23:11.488Z,19.90
2016-07-17T01:24:11.571Z,19.90
2016-07-17T01:25:11.120Z,19.90
2016-07-17T01:26:11.668Z,19.90
2016-07-17T01:27:08.828Z,19.90
2016-07-17T01:28:10.028Z,19.90
2016-07-17T01:29:11.647Z,19.90
2016-07-17T01:30:12.298Z,19.90
2016-07-17T01:31:12.654Z,19.90
2016-07-17T01:32:13.297Z,19.90
2016-07-17T01:33:13.047Z,19.90
2016-07-17T01:34:11.761Z,19.90
2016-07-17T01:35:11.891Z,19.90
2016-07-17T01:36:13.942Z,19.90
2016-07-17T01:37:10.368Z,19.90
2016-07-17T01:38:12.048Z,19.90
2016-07-17T01:39:09.706Z,19.90
2016-07-17T01:40:11.190Z,19.90
2016-07-17T01:41:13.250Z,19.90
2016-07-17T01:42:14.144Z,19.90
2016-07-17T01:43:12.401Z,19.90
2016-07-17T01:44:16.088Z,19.90
2016-07-17T01:45:11.793Z,19.90
2016-07-17T01:46:11.971Z,19.90
2016-07-17T01:47:13.835Z,19.90
2016-07-17T01:48:13.601Z,19.90
2016-07-17T01:49:12.117Z,19.90
2016-07-17T01:50:12.043Z,19.90
2016-07-17T01:51:09.788Z,19.90
2016-07-17T01:52:08.669Z,19.90
2016-07-17T01:53:11.813Z,19.90
2016-07-17T01:54:12.677Z,19.90
2016-07-17T01:55:13.863Z,19.90
2016-07-17T01:56:14.153Z,19.90
2016-07-17T01:57:10.548Z,19.90
2016-07-17T01:58:08.784Z,19.90
2016-07-17T01:59:12.606Z,19.90
2016-07-17T02:00:11.466Z,19.90
2016-07-17T02:01:10.393Z,19.90
2016-07-17T02:02:12.555Z,19.90
2016-07-17T02:03:11.327Z,19.90
2016-07-17T02:04:12.352Z,19.90
2016-07-17T02:05:11.947Z,19.90
2016-07-17T02:06:11.638Z,19.90
2016-07-17T02:07:14.523Z,19.90
2016-07-17T02:08:09.314Z,19.90
2016-07-17T02:09:13.207Z,19.90
2016-07-17T02:10:12.607Z,19.90
2016-07-17T02:11:09.529Z,19.90
2016-07-17T02:12:11.379Z,19.90
2016-07-17T02:13:13.009Z,19.90
2016-07-17T02:14:09.773Z,19.90
2016-07-17T02:15:09.862Z,19.90
2016-07-17T02:16:13.026Z,19.90
2016-07-17T02:17:10.552Z,19.90
2016-07-17T02:18:13.616Z,19.90
2016-07-17T02:19:09.832Z,19.90
2016-07-17T02:20:11.883Z,19.90
2016-07-17T02:21:11.964Z,19.90
2016-07-17T02:22:15.657Z,19.90
2016-07-17T02:23:18.085Z,19.90
2016-07-17T02:24:11.813Z,19.90
2016-07-17T02:25:15.652Z,19.90
2016-07-17T02:26:13.801Z,19.90
2016-07-17T02:27:13.948Z,19.90
2016-07-17T02:28:12.236Z,19.90
2016-07-17T02:29:12.335Z,19.90
2016-07-17T02:30:11.985Z,19.90
2016-07-17T02:31:11.338Z,19.90
2016-07-17T02:32:11.975Z,20.00
2016-07-17T02:33:13.038Z,19.90
2016-07-17T02:34:13.196Z,20.00
2016-07-17T02:35:11.476Z,19.90
2016-07-17T02:36:09.888Z,20.00
2016-07-17T02:37:14.036Z,20.00
2016-07-17T02:38:13.151Z,20.00
2016-07-17T02:39:14.508Z,20.00
2016-07-17T02:40:09.804Z,20.00
2016-07-17T02:41:13.095Z,20.00
2016-07-17T02:42:12.136Z,19.90
2016-07-17T02:43:11.811Z,20.00
2016-07-17T02:44:12.887Z,20.00
2016-07-17T02:45:11.711Z,20.00
2016-07-17T02:46:15.076Z,20.00
2016-07-17T02:47:14.014Z,20.00
2016-07-17T02:48:12.264Z,19.90
2016-07-17T02:49:13.594Z,19.90
2016-07-17T02:50:14.329Z,19.90
2016-07-17T02:51:15.834Z,20.00
2016-07-17T02:52:11.258Z,19.90
2016-07-17T02:53:12.976Z,19.90
2016-07-17T02:54:12.182Z,19.90
2016-07-17T02:55:13.765Z,19.90
2016-07-17T02:56:11.665Z,19.90
2016-07-17T02:57:14.364Z,19.90
2016-07-17T02:58:13.182Z,19.90
2016-07-17T02:59:12.739Z,19.90
2016-07-17T03:00:13.280Z,19.90
2016-07-17T03:01:12.564Z,19.90
2016-07-17T03:02:11.942Z,19.90
2016-07-17T03:03:11.323Z,19.90
2016-07-17T03:04:09.200Z,19.90
2016-07-17T03:05:11.979Z,19.90
2016-07-17T03:06:11.707Z,19.90
2016-07-17T03:07:11.667Z,19.90
2016-07-17T03:08:11.791Z,19.90
2016-07-17T03:09:12.695Z,19.90
2016-07-17T03:10:13.718Z,19.90
2016-07-17T03:11:12.945Z,19.90
2016-07-17T03:12:11.873Z,19.90
2016-07-17T03:13:12.703Z,19.90
2016-07-17T03:14:14.196Z,19.90
2016-07-17T03:15:12.930Z,19.90
2016-07-17T03:16:12.379Z,19.90
2016-07-17T03:17:13.398Z,19.90
2016-07-17T03:18:11.934Z,19.90
2016-07-17T03:19:14.875Z,19.90
2016-07-17T03:20:13.144Z,19.90
2016-07-17T03:21:12.025Z,19.90
2016-07-17T03:22:12.618Z,19.90
2016-07-17T03:23:12.471Z,19.90
2016-07-17T03:24:10.314Z,19.90
2016-07-17T03:25:09.950Z,19.90
2016-07-17T03:26:11.349Z,19.90
2016-07-17T03:27:12.168Z,19.90
2016-07-17T03:28:13.101Z,19.90
2016-07-17T03:29:10.162Z,19.90
2016-07-17T03:30:12.318Z,19.90
2016-07-17T03:31:12.581Z,19.90
2016-07-17T03:32:12.647Z,19.90
2016-07-17T03:33:12.237Z,19.90
2016-07-17T03:34:12.859Z,19.90
2016-07-17T03:35:11.947Z,19.90
2016-07-17T03:36:13.231Z,19.90
2016-07-17T03:37:11.571Z,19.90
2016-07-17T03:38:15.295Z,19.90
2016-07-17T03:39:12.478Z,19.90
2016-07-17T03:40:11.939Z,19.90
2016-07-17T03:41:12.233Z,19.90
2016-07-17T03:42:15.481Z,19.90
2016-07-17T03:43:15.463Z,19.90
2016-07-17T03:44:11.930Z,19.90
2016-07-17T03:45:11.507Z,19.90
2016-07-17T03:46:14.682Z,19.90
2016-07-17T03:47:11.881Z,19.90
2016-07-17T03:48:12.377Z,19.90
2016-07-17T03:49:08.893Z,19.90
2016-07-17T03:50:12.310Z,19.90
2016-07-17T03:51:08.944Z,19.90
2016-07-17T03:52:12.061Z,19.90
2016-07-17T03:53:14.111Z,19.90
2016-07-17T03:54:12.987Z,19.90
2016-07-17T03:55:11.708Z,19.90
2016-07-17T03:56:12.200Z,19.90
2016-07-17T03:57:12.223Z,19.90
2016-07-17T03:58:10.598Z,19.90
2016-07-17T03:59:11.658Z,19.90
2016-07-17T04:00:14.106Z,19.90
2016-07-17T04:01:09.670Z,20.00
2016-07-17T04:02:11.412Z,19.90
2016-07-17T04:03:11.521Z,19.90
2016-07-17T04:04:13.112Z,19.90
2016-07-17T04:05:12.422Z,19.90
2016-07-17T04:06:11.813Z,19.90
2016-07-17T04:07:12.670Z,19.90
2016-07-17T04:08:10.698Z,20.00
2016-07-17T04:09:15.397Z,19.90
2016-07-17T04:10:14.110Z,19.90
2016-07-17T04:11:14.376Z,20.00
2016-07-17T04:12:10.052Z,20.00
2016-07-17T04:13:10.112Z,20.00
2016-07-17T04:14:09.940Z,20.00
2016-07-17T04:15:15.953Z,20.00
2016-07-17T04:16:13.617Z,20.00
2016-07-17T04:17:11.629Z,20.00
2016-07-17T04:18:14.798Z,20.00
2016-07-17T04:19:10.437Z,20.00
2016-07-17T04:20:10.985Z,20.00
2016-07-17T04:21:12.305Z,20.00
2016-07-17T04:22:14.698Z,20.00
2016-07-17T04:23:12.056Z,20.00
2016-07-17T04:24:13.993Z,20.00
2016-07-17T04:25:12.237Z,20.00
2016-07-17T04:26:11.448Z,20.00
2016-07-17T04:27:13.751Z,20.00
2016-07-17T04:28:12.348Z,20.00
2016-07-17T04:29:11.551Z,19.90
2016-07-17T04:30:12.016Z,19.90
2016-07-17T04:31:10.599Z,19.90
2016-07-17T04:32:09.755Z,19.90
2016-07-17T04:33:10.593Z,19.90
2016-07-17T04:34:13.453Z,19.90
2016-07-17T04:35:16.687Z,19.90
2016-07-17T04:36:12.908Z,19.90
2016-07-17T04:37:12.450Z,19.90
2016-07-17T04:38:14.812Z,19.90
2016-07-17T04:39:16.893Z,19.90
2016-07-17T04:40:13.585Z,19.90
2016-07-17T04:41:15.245Z,19.90
2016-07-17T04:42:10.123Z,19.90
2016-07-17T04:43:12.495Z,19.90
2016-07-17T04:44:12.401Z,19.90
2016-07-17T04:45:14.660Z,19.90
2016-07-17T04:46:13.539Z,19.90
2016-07-17T04:47:15.289Z,19.90
2016-07-17T04:48:12.931Z,19.90
2016-07-17T04:49:10.320Z,19.90
2016-07-17T04:50:15.757Z,19.90
2016-07-17T04:51:15.763Z,19.90
2016-07-17T04:52:09.888Z,19.90
2016-07-17T04:53:12.159Z,19.90
2016-07-17T04:54:12.474Z,19.90
2016-07-17T04:55:13.608Z,19.90
2016-07-17T04:56:16.072Z,19.90
2016-07-17T04:57:18.945Z,19.90
2016-07-17T04:58:19.205Z,19.90
2016-07-17T04:59:09.122Z,19.90
2016-07-17T05:00:12.721Z,19.90
2016-07-17T05:01:13.437Z,19.90
2016-07-17T05:02:16.320Z,19.90
2016-07-17T05:03:13.246Z,19.90
2016-07-17T05:04:14.723Z,19.90
2016-07-17T05:05:15.836Z,19.90
2016-07-17T05:06:14.916Z,19.90
2016-07-17T05:07:11.544Z,19.90
2016-07-17T05:08:15.034Z,19.90
2016-07-17T05:09:16.105Z,19.90
2016-07-17T05:10:13.819Z,19.90
2016-07-17T05:11:19.765Z,19.90
2016-07-17T05:12:13.116Z,19.90
2016-07-17T05:13:13.125Z,19.90
2016-07-17T05:14:15.179Z,19.90
2016-07-17T05:15:15.861Z,19.90
2016-07-17T05:16:12.840Z,19.90
2016-07-17T05:17:17.320Z,19.90
2016-07-17T05:18:13.057Z,19.90
2016-07-17T05:19:16.035Z,19.90
2016-07-17T05:20:17.272Z,19.90
2016-07-17T05:21:12.774Z,19.90
2016-07-17T05:22:10.028Z,19.90
2016-07-17T05:23:10.432Z,19.90
2016-07-17T05:24:09.108Z,19.90
2016-07-17T05:25:13.622Z,19.90
2016-07-17T05:26:09.423Z,19.90
2016-07-17T05:27:11.486Z,19.90
2016-07-17T05:28:11.997Z,19.90
2016-07-17T05:29:11.910Z,19.90
2016-07-17T05:30:11.575Z,19.90
2016-07-17T05:31:13.611Z,19.90
2016-07-17T05:32:13.264Z,20.00
2016-07-17T05:33:13.167Z,19.90
2016-07-17T05:34:14.610Z,19.90
2016-07-17T05:35:12.978Z,19.90
2016-07-17T05:36:13.805Z,19.90
2016-07-17T05:37:16.411Z,19.90
2016-07-17T05:38:11.669Z,19.90
2016-07-17T05:39:11.575Z,19.90
2016-07-17T05:40:15.985Z,19.90
2016-07-17T05:41:13.022Z,19.90
2016-07-17T05:42:15.383Z,19.90
2016-07-17T05:43:16.821Z,19.90
2016-07-17T05:44:14.374Z,19.90
2016-07-17T05:45:13.359Z,19.90
2016-07-17T05:46:14.389Z,19.90
2016-07-17T05:47:14.295Z,19.90
2016-07-17T05:48:15.941Z,19.90
2016-07-17T05:49:14.869Z,19.90
2016-07-17T05:50:08.684Z,19.90
2016-07-17T05:51:16.772Z,19.90
2016-07-17T05:52:12.489Z,19.90
2016-07-17T05:53:10.652Z,19.90
2016-07-17T05:54:16.248Z,19.90
2016-07-17T05:55:14.047Z,19.90
2016-07-17T05:56:15.958Z,19.90
2016-07-17T05:57:15.255Z,19.90
2016-07-17T05:58:12.738Z,19.90
2016-07-17T05:59:10.696Z,19.90
2016-07-17T06:00:10.284Z,19.90
2016-07-17T06:01:16.689Z,19.90
2016-07-17T06:02:11.536Z,19.90
2016-07-17T06:03:14.002Z,19.90
2016-07-17T06:04:12.268Z,19.90
2016-07-17T06:05:16.768Z,19.90
2016-07-17T06:06:13.718Z,19.90
2016-07-17T06:07:13.419Z,19.90
2016-07-17T06:08:12.403Z,19.90
2016-07-17T06:09:16.610Z,19.90
2016-07-17T06:10:14.158Z,19.90
2016-07-17T06:11:13.744Z,19.90
2016-07-17T06:12:12.943Z,19.90
2016-07-17T06:13:11.824Z,19.90
2016-07-17T06:14:16.438Z,19.90
2016-07-17T06:15:16.431Z,19.90
2016-07-17T06:16:15.288Z,19.90
2016-07-17T06:17:16.055Z,19.90
2016-07-17T06:18:12.370Z,19.90
2016-07-17T06:19:14.314Z,19.90
2016-07-17T06:20:16.431Z,19.90
2016-07-17T06:21:12.905Z,19.90
2016-07-17T06:22:11.991Z,19.90
2016-07-17T06:23:11.999Z,19.90
2016-07-17T06:24:12.415Z,19.90
2016-07-17T06:25:15.188Z,19.90
2016-07-17T06:26:14.376Z,19.90
2016-07-17T06:27:10.789Z,19.90
2016-07-17T06:28:12.649Z,19.90
2016-07-17T06:29:17.115Z,19.90
2016-07-17T06:30:13.791Z,19.90
2016-07-17T06:31:13.583Z,19.90
2016-07-17T06:32:12.069Z,19.90
2016-07-17T06:33:15.962Z,19.90
2016-07-17T06:34:13.513Z,19.90
2016-07-17T06:35:12.795Z,19.90
2016-07-17T06:36:13.629Z,19.90
2016-07-17T06:37:12.716Z,19.90
2016-07-17T06:38:14.259Z,19.90
2016-07-17T06:39:16.230Z,19.90
2016-07-17T06:40:12.122Z,19.90
2016-07-17T06:41:16.330Z,19.90
2016-07-17T06:42:16.636Z,19.90
2016-07-17T06:43:10.089Z,19.90
2016-07-17T06:44:10.299Z,19.90
2016-07-17T06:45:13.994Z,19.90
2016-07-17T06:46:15.754Z,19.90
2016-07-17T06:47:15.072Z,19.90
2016-07-17T06:48:09.919Z,19.90
2016-07-17T06:49:12.701Z,19.90
2016-07-17T06:50:13.937Z,19.90
2016-07-17T06:51:13.537Z,19.90
2016-07-17T06:52:14.055Z,19.90
2016-07-17T06:53:10.461Z,19.90
2016-07-17T06:54:15.809Z,19.90
2016-07-17T06:55:15.819Z,19.90
2016-07-17T06:56:10.082Z,19.90
2016-07-17T06:57:12.761Z,19.90
2016-07-17T06:58:15.318Z,19.90
2016-07-17T06:59:15.408Z,19.90
2016-07-17T07:00:13.387Z,19.90
2016-07-17T07:01:16.351Z,19.90
2016-07-17T07:02:12.799Z,19.90
2016-07-17T07:03:14.444Z,19.90
2016-07-17T07:04:16.472Z,19.90
2016-07-17T07:05:09.737Z,19.90
2016-07-17T07:06:12.212Z,19.90
2016-07-17T07:07:20.538Z,19.90
2016-07-17T07:08:16.728Z,19.90
2016-07-17T07:09:16.511Z,19.90
2016-07-17T07:10:11.206Z,19.90
2016-07-17T07:11:15.732Z,19.90
2016-07-17T07:12:13.893Z,19.90
2016-07-17T07:13:16.760Z,19.90
2016-07-17T07:14:14.729Z,19.90
2016-07-17T07:15:12.368Z,19.90
2016-07-17T07:16:16.775Z,20.00
2016-07-17T07:17:12.740Z,19.90
2016-07-17T07:18:09.741Z,20.00
2016-07-17T07:19:14.541Z,19.90
2016-07-17T07:20:15.362Z,19.90
2016-07-17T07:21:13.040Z,19.90
2016-07-17T07:22:17.040Z,19.90
2016-07-17T07:23:14.783Z,19.90
2016-07-17T07:24:09.928Z,19.90
2016-07-17T07:25:14.297Z,19.90
2016-07-17T07:26:14.816Z,19.90
2016-07-17T07:27:12.368Z,19.90
2016-07-17T07:28:14.751Z,19.90
2016-07-17T07:29:13.915Z,19.90
2016-07-17T07:30:14.404Z,19.90
2016-07-17T07:31:12.805Z,19.90
2016-07-17T07:32:17.411Z,19.90
2016-07-17T07:33:10.659Z,19.90
2016-07-17T07:34:10.047Z,19.90
2016-07-17T07:35:16.301Z,19.90
2016-07-17T07:36:13.362Z,19.90
2016-07-17T07:37:13.595Z,19.90
2016-07-17T07:38:14.995Z,19.90
2016-07-17T07:39:12.239Z,19.90
2016-07-17T07:40:10.609Z,19.90
2016-07-17T07:41:12.407Z,19.90
2016-07-17T07:42:13.151Z,20.00
2016-07-17T07:43:14.315Z,19.90
2016-07-17T07:44:12.480Z,19.90
2016-07-17T07:45:15.979Z,19.90
2016-07-17T07:46:12.403Z,19.90
2016-07-17T07:47:16.260Z,19.90
2016-07-17T07:48:08.926Z,19.90
2016-07-17T07:49:12.555Z,19.90
2016-07-17T07:50:13.902Z,19.90
2016-07-17T07:51:11.815Z,19.90
2016-07-17T07:52:13.089Z,19.90
2016-07-17T07:53:12.809Z,20.00
2016-07-17T07:54:11.368Z,19.90
2016-07-17T07:55:11.957Z,20.00
2016-07-17T07:56:12.045Z,19.90
2016-07-17T07:57:13.233Z,20.00
2016-07-17T07:58:13.496Z,20.00
2016-07-17T07:59:10.588Z,20.00
2016-07-17T08:00:09.451Z,20.00
2016-07-17T08:01:11.526Z,19.90
2016-07-17T08:02:12.181Z,19.90
2016-07-17T08:03:12.152Z,19.90
2016-07-17T08:04:11.103Z,20.00
2016-07-17T08:05:11.566Z,20.00
2016-07-17T08:06:14.688Z,20.00
2016-07-17T08:07:13.990Z,20.00
2016-07-17T08:08:15.329Z,20.00
2016-07-17T08:09:12.323Z,20.00
2016-07-17T08:10:11.555Z,20.00
2016-07-17T08:11:12.848Z,20.00
2016-07-17T08:12:11.585Z,20.00
2016-07-17T08:13:12.365Z,20.00
2016-07-17T08:14:08.504Z,20.00
2016-07-17T08:15:11.809Z,20.00
2016-07-17T08:16:16.191Z,20.00
2016-07-17T08:17:12.272Z,20.00
2016-07-17T08:18:11.211Z,20.00
2016-07-17T08:19:14.477Z,20.00
2016-07-17T08:20:12.945Z,20.10
2016-07-17T08:21:12.301Z,20.10
2016-07-17T08:22:12.216Z,20.10
2016-07-17T08:23:12.207Z,20.10
2016-07-17T08:24:11.704Z,20.10
2016-07-17T08:25:12.175Z,20.10
2016-07-17T08:26:14.539Z,20.10
2016-07-17T08:27:12.816Z,20.10
2016-07-17T08:28:12.578Z,20.10
2016-07-17T08:29:13.530Z,20.10
2016-07-17T08:30:13.604Z,20.10
2016-07-17T08:31:12.360Z,20.10
2016-07-17T08:32:11.511Z,20.10
2016-07-17T08:33:12.952Z,20.10
2016-07-17T08:34:12.756Z,20.10
2016-07-17T08:35:14.095Z,20.10
2016-07-17T08:36:16.382Z,20.10
2016-07-17T08:37:11.958Z,20.10
2016-07-17T08:38:16.421Z,20.10
2016-07-17T08:39:17.077Z,20.10
2016-07-17T08:40:12.491Z,20.10
2016-07-17T08:41:10.199Z,20.10
2016-07-17T08:42:12.405Z,20.10
2016-07-17T08:43:15.824Z,20.10
2016-07-17T08:44:12.716Z,20.10
2016-07-17T08:45:12.825Z,20.10
2016-07-17T08:46:13.149Z,20.10
2016-07-17T08:47:12.748Z,20.10
2016-07-17T08:48:15.919Z,20.10
2016-07-17T08:49:14.402Z,20.10
2016-07-17T08:50:10.210Z,20.10
2016-07-17T08:51:14.416Z,20.10
2016-07-17T08:52:15.447Z,20.10
2016-07-17T08:53:14.430Z,20.10
2016-07-17T08:54:14.642Z,20.10
2016-07-17T08:55:13.317Z,20.10
2016-07-17T08:56:11.985Z,20.10
2016-07-17T08:57:17.204Z,20.10
2016-07-17T08:58:16.783Z,20.10
2016-07-17T08:59:15.077Z,20.10
2016-07-17T09:00:14.583Z,20.10
2016-07-17T09:01:13.455Z,20.10
2016-07-17T09:02:15.109Z,20.10
2016-07-17T09:03:12.148Z,20.10
2016-07-17T09:04:15.193Z,20.10
2016-07-17T09:05:12.673Z,20.10
2016-07-17T09:06:10.933Z,20.10
2016-07-17T09:07:16.745Z,20.10
2016-07-17T09:08:12.278Z,20.10
2016-07-17T09:09:12.704Z,20.10
2016-07-17T09:10:11.601Z,20.10
2016-07-17T09:11:12.923Z,20.10
2016-07-17T09:12:11.701Z,20.10
2016-07-17T09:13:13.552Z,20.10
2016-07-17T09:14:13.253Z,20.10
2016-07-17T09:15:14.898Z,20.10
2016-07-17T09:16:14.076Z,20.10
2016-07-17T09:17:17.139Z,20.10
2016-07-17T09:18:16.660Z,20.10
2016-07-17T09:19:17.151Z,20.10
2016-07-17T09:20:16.716Z,20.10
2016-07-17T09:21:15.556Z,20.10
2016-07-17T09:22:11.059Z,20.10
2016-07-17T09:23:14.845Z,20.10
2016-07-17T09:24:12.396Z,20.10
2016-07-17T09:25:16.233Z,20.10
2016-07-17T09:26:15.686Z,20.20
2016-07-17T09:27:12.631Z,20.20
2016-07-17T09:28:15.700Z,20.20
2016-07-17T09:29:15.513Z,20.20
2016-07-17T09:30:12.653Z,20.20
2016-07-17T09:31:11.739Z,20.20
2016-07-17T09:32:16.457Z,20.20
2016-07-17T09:33:10.217Z,20.30
2016-07-17T09:34:15.408Z,20.20
2016-07-17T09:35:13.910Z,20.20
2016-07-17T09:36:25.116Z,20.20
2016-07-17T09:37:18.027Z,20.20
2016-07-17T09:38:14.555Z,20.20
2016-07-17T09:39:17.278Z,20.10
2016-07-17T09:40:16.394Z,20.10
2016-07-17T09:41:16.385Z,20.00
2016-07-17T09:42:17.142Z,20.00
2016-07-17T09:43:14.349Z,20.00
2016-07-17T09:44:23.647Z,19.90
2016-07-17T09:45:12.788Z,19.90
2016-07-17T09:46:16.685Z,19.90
2016-07-17T09:47:12.880Z,19.90
2016-07-17T09:48:16.547Z,19.90
2016-07-17T09:49:17.007Z,19.90
2016-07-17T09:50:15.438Z,19.90
2016-07-17T09:51:16.304Z,19.90
2016-07-17T09:52:16.927Z,19.90
2016-07-17T09:53:15.576Z,19.90
2016-07-17T09:54:13.023Z,19.90
2016-07-17T09:55:10.685Z,19.90
2016-07-17T09:56:14.584Z,19.90
2016-07-17T09:57:12.532Z,19.90
2016-07-17T09:58:14.908Z,19.90
2016-07-17T09:59:16.625Z,19.90
2016-07-17T10:00:27.389Z,19.90
2016-07-17T10:01:17.430Z,19.90
2016-07-17T10:02:16.575Z,20.00
2016-07-17T10:03:22.266Z,20.00
2016-07-17T10:04:19.243Z,20.00
2016-07-17T10:05:20.061Z,20.00
2016-07-17T10:08:56.413Z,22.70
2016-07-17T10:09:11.899Z,22.60
2016-07-17T10:09:21.605Z,22.50
2016-07-17T10:10:25.167Z,22.10
2016-07-17T10:11:24.013Z,21.70
2016-07-17T10:12:15.861Z,21.50
2016-07-17T10:13:17.241Z,21.30
2016-07-17T10:14:17.092Z,21.10
2016-07-17T10:15:17.277Z,20.90
2016-07-17T10:16:17.144Z,20.80
2016-07-17T10:17:14.329Z,20.70
2016-07-17T10:18:13.518Z,20.60
2016-07-17T10:19:24.530Z,20.60
2016-07-17T10:20:21.556Z,20.50
2016-07-17T10:21:18.857Z,20.50
2016-07-17T10:22:15.812Z,20.50
2016-07-17T10:23:16.985Z,20.40
2016-07-17T10:24:19.687Z,20.40
2016-07-17T10:25:18.098Z,20.40
2016-07-17T10:26:16.272Z,20.40
2016-07-17T10:27:21.513Z,20.40
2016-07-17T10:28:21.514Z,20.30
2016-07-17T10:30:22.546Z,20.30
2016-07-17T10:31:23.113Z,20.30
2016-07-17T10:32:15.697Z,20.30
2016-07-17T10:33:20.488Z,20.30
2016-07-17T10:34:12.703Z,20.30
2016-07-17T10:35:15.655Z,20.30
2016-07-17T10:36:14.869Z,20.30
2016-07-17T10:37:15.487Z,20.30
2016-07-17T10:38:16.987Z,20.30
2016-07-17T10:39:16.847Z,20.30
2016-07-17T10:40:17.017Z,20.30
2016-07-17T10:41:14.689Z,20.30
2016-07-17T10:42:15.456Z,20.30
2016-07-17T10:43:15.444Z,20.30
2016-07-17T10:44:15.996Z,20.30
2016-07-17T10:45:17.933Z,20.30
2016-07-17T10:46:12.793Z,20.30
2016-07-17T10:47:16.919Z,20.30
2016-07-17T10:48:18.130Z,20.30
2016-07-17T10:49:16.521Z,20.30
2016-07-17T10:50:15.617Z,20.30
2016-07-17T10:51:17.758Z,20.30
2016-07-17T10:52:20.940Z,20.30
2016-07-17T10:53:10.395Z,20.30
2016-07-17T10:54:12.656Z,20.30
2016-07-17T10:55:16.447Z,20.30
2016-07-17T10:56:16.391Z,20.30
2016-07-17T10:57:13.639Z,20.30
2016-07-17T10:58:17.030Z,20.30
2016-07-17T10:59:17.715Z,20.30
2016-07-17T11:00:22.224Z,20.30
2016-07-17T11:01:18.329Z,20.30
2016-07-17T11:02:17.710Z,20.30
2016-07-17T11:03:14.622Z,20.30
2016-07-17T11:04:15.800Z,20.30
2016-07-17T11:05:16.452Z,20.30
2016-07-17T11:06:17.002Z,20.30
2016-07-17T11:07:20.700Z,20.30
2016-07-17T11:08:19.949Z,20.30
2016-07-17T11:09:17.472Z,20.30
2016-07-17T11:10:17.433Z,20.30
2016-07-17T11:11:16.481Z,20.30
2016-07-17T11:12:18.745Z,20.30
2016-07-17T11:13:14.801Z,20.30
2016-07-17T11:14:17.644Z,20.30
2016-07-17T11:15:17.804Z,20.30
2016-07-17T11:16:16.162Z,20.30
2016-07-17T11:17:15.230Z,20.30
2016-07-17T11:18:17.635Z,20.30
2016-07-17T11:19:17.041Z,20.30
2016-07-17T11:20:16.358Z,20.30
2016-07-17T11:21:15.814Z,20.40
2016-07-17T11:22:14.543Z,20.40
2016-07-17T11:23:15.917Z,20.40
2016-07-17T11:24:15.097Z,20.40
2016-07-17T11:25:16.393Z,20.40
2016-07-17T11:26:16.699Z,20.40
2016-07-17T11:27:16.901Z,20.30
2016-07-17T11:28:17.671Z,20.30
2016-07-17T11:29:17.179Z,20.30
2016-07-17T11:30:17.645Z,20.30
2016-07-17T11:31:16.656Z,20.30
2016-07-17T11:32:16.565Z,20.30
2016-07-17T11:33:16.853Z,20.30
2016-07-17T11:34:20.618Z,20.30
2016-07-17T11:35:16.373Z,20.30
2016-07-17T11:36:13.973Z,20.30
2016-07-17T11:37:16.058Z,20.30
2016-07-17T11:38:16.582Z,20.30
2016-07-17T11:39:17.287Z,20.30
2016-07-17T11:40:17.350Z,20.30
2016-07-17T11:41:16.595Z,20.30
2016-07-17T11:42:17.300Z,20.30
2016-07-17T11:43:13.423Z,20.30
2016-07-17T11:44:17.321Z,20.30
2016-07-17T11:45:15.185Z,20.30
2016-07-17T11:46:16.590Z,20.30
2016-07-17T11:47:13.034Z,20.30
2016-07-17T11:48:16.109Z,20.30
2016-07-17T11:49:16.189Z,20.30
2016-07-17T11:50:16.755Z,20.30
2016-07-17T11:51:17.750Z,20.30
2016-07-17T11:52:17.907Z,20.30
2016-07-17T11:53:16.633Z,20.30
2016-07-17T11:54:17.345Z,20.30
2016-07-17T11:55:17.071Z,20.30
2016-07-17T11:56:16.901Z,20.30
2016-07-17T11:57:15.619Z,20.30
2016-07-17T11:58:16.458Z,20.30
2016-07-17T11:59:13.840Z,20.30
2016-07-17T12:00:16.676Z,20.30
2016-07-17T12:01:17.009Z,20.30
2016-07-17T12:02:16.937Z,20.30
2016-07-17T12:03:16.653Z,20.30
2016-07-17T12:04:16.853Z,20.30
2016-07-17T12:05:16.812Z,20.30
2016-07-17T12:06:13.280Z,20.30
2016-07-17T12:07:14.984Z,20.30
2016-07-17T12:08:16.271Z,20.30
2016-07-17T12:09:15.064Z,20.30
2016-07-17T12:10:15.461Z,20.30
2016-07-17T12:11:16.646Z,20.30
2016-07-17T12:12:17.335Z,20.30
2016-07-17T12:13:17.203Z,20.30
2016-07-17T12:14:15.996Z,20.30
2016-07-17T12:15:17.265Z,20.30
2016-07-17T12:16:13.250Z,20.30
2016-07-17T12:17:16.720Z,20.30
2016-07-17T12:18:16.168Z,20.30
2016-07-17T12:19:10.374Z,20.30
2016-07-17T12:20:14.973Z,20.30
2016-07-17T12:21:16.713Z,20.30
2016-07-17T12:22:16.511Z,20.30
2016-07-17T12:23:17.850Z,20.30
2016-07-17T12:24:17.169Z,20.30
2016-07-17T12:25:16.464Z,20.30
2016-07-17T12:26:17.478Z,20.30
2016-07-17T12:27:18.087Z,20.30
2016-07-17T12:28:15.502Z,20.30
2016-07-17T12:29:15.082Z,20.30
2016-07-17T12:30:15.752Z,20.30
2016-07-17T12:31:15.457Z,20.30
2016-07-17T12:32:16.008Z,20.30
2016-07-17T12:33:16.966Z,20.30
2016-07-17T12:34:17.050Z,20.30
2016-07-17T12:35:17.371Z,20.30
2016-07-17T12:36:17.006Z,20.30
2016-07-17T12:37:17.741Z,20.30
2016-07-17T12:38:17.535Z,20.30
2016-07-17T12:39:17.035Z,20.30
2016-07-17T12:40:16.032Z,20.30
2016-07-17T12:41:17.092Z,20.30
2016-07-17T12:42:14.655Z,20.30
2016-07-17T12:43:16.166Z,20.30
2016-07-17T12:44:10.891Z,20.30
2016-07-17T12:45:17.195Z,20.30
2016-07-17T12:46:16.695Z,20.30
2016-07-17T12:47:16.038Z,20.30
2016-07-17T12:48:17.180Z,20.20
2016-07-17T12:49:16.994Z,20.30
2016-07-17T12:50:15.988Z,20.20
2016-07-17T12:51:14.116Z,20.20
2016-07-17T12:52:18.184Z,20.20
2016-07-17T12:53:15.917Z,20.20
2016-07-17T12:54:15.602Z,20.20